createdAt,value
2017-10-21T00:01:17.780Z,19.70
2017-10-21T00:03:46.125Z,18.33
2017-10-21T00:06:13.634Z,18.40
2017-10-21T00:08:41.914Z,18.30
2017-10-21T00:11:09.443Z,17.30
2017-10-21T00:13:36.962Z,15.60
2017-10-21T00:16:04.852Z,13.30
2017-10-21T00:18:32.385Z,12.30
2017-10-21T00:20:59.901Z,15.07
2017-10-21T00:23:27.449Z,17.00
2017-10-21T00:25:54.996Z,12.90
2017-10-21T00:28:22.813Z,12.80
2017-10-21T00:30:51.119Z,13.77
2017-10-21T00:33:18.650Z,11.90
2017-10-21T00:35:46.209Z,13.60
2017-10-21T00:38:14.477Z,13.70
2017-10-21T00:40:43.045Z,13.50
2017-10-21T00:43:10.579Z,11.00
2017-10-21T00:45:38.086Z,9.70
2017-10-21T00:48:06.387Z,11.23
2017-10-21T00:50:34.826Z,13.83
2017-10-21T00:53:02.441Z,14.13
2017-10-21T00:55:29.956Z,12.00
2017-10-21T00:57:58.263Z,10.10
2017-10-21T01:00:25.815Z,9.70
2017-10-21T01:02:53.952Z,11.20
2017-10-21T01:05:21.513Z,11.37
2017-10-21T01:07:49.040Z,10.10
2017-10-21T01:10:16.554Z,8.70
2017-10-21T01:12:44.871Z,10.00
2017-10-21T01:15:12.370Z,10.43
2017-10-21T01:17:39.932Z,9.40
2017-10-21T01:20:07.469Z,10.30
2017-10-21T01:22:34.988Z,9.30
2017-10-21T01:25:03.302Z,8.70
2017-10-21T01:27:30.809Z,9.43
2017-10-21T01:29:59.484Z,9.13
2017-10-21T01:32:27.786Z,7.33
2017-10-21T01:34:55.304Z,8.00
2017-10-21T01:37:22.846Z,9.90
2017-10-21T01:39:50.355Z,8.60
2017-10-21T01:42:19.002Z,8.87
2017-10-21T01:44:46.518Z,9.63
2017-10-21T01:47:14.029Z,8.30
2017-10-21T01:49:41.573Z,7.10
2017-10-21T01:52:09.080Z,8.93
2017-10-21T01:54:37.380Z,6.23
2017-10-21T01:57:04.924Z,7.10
2017-10-21T01:59:33.220Z,5.27
2017-10-21T02:02:00.752Z,6.20
2017-10-21T02:04:29.029Z,5.97
2017-10-21T02:06:57.358Z,5.90
2017-10-21T02:09:24.853Z,5.10
2017-10-21T02:11:52.359Z,4.93
2017-10-21T02:14:19.905Z,4.83
2017-10-21T02:16:47.409Z,6.87
2017-10-21T02:19:14.944Z,4.60
2017-10-21T02:21:42.455Z,4.53
2017-10-21T02:24:09.961Z,4.73
2017-10-21T02:26:37.492Z,3.60
2017-10-21T02:29:05.826Z,4.37
2017-10-21T02:31:33.676Z,3.30
2017-10-21T02:34:01.281Z,4.20
2017-10-21T02:36:29.102Z,3.80
2017-10-21T02:38:56.660Z,4.17
2017-10-21T02:41:24.175Z,3.53
2017-10-21T02:43:51.978Z,4.43
2017-10-21T02:46:19.488Z,5.10
2017-10-21T02:48:47.004Z,4.43
2017-10-21T02:51:14.539Z,3.87
2017-10-21T02:53:42.814Z,3.73
2017-10-21T02:56:10.655Z,4.20
2017-10-21T02:58:38.157Z,3.70
2017-10-21T03:01:05.694Z,3.60
2017-10-21T03:03:34.023Z,3.60
2017-10-21T03:06:01.573Z,3.07
2017-10-21T03:08:29.141Z,2.80
2017-10-21T03:10:56.662Z,7.43
2017-10-21T03:13:24.929Z,3.00
2017-10-21T03:15:53.229Z,2.67
2017-10-21T03:18:20.754Z,3.17
2017-10-21T03:20:48.318Z,3.40
2017-10-21T03:23:15.836Z,3.30
2017-10-21T03:25:43.357Z,3.60
2017-10-21T03:28:11.663Z,4.70
2017-10-21T03:30:39.195Z,3.73
2017-10-21T03:33:07.520Z,3.40
2017-10-21T03:35:35.028Z,3.27
2017-10-21T03:38:03.317Z,3.30
2017-10-21T03:40:31.618Z,3.03
2017-10-21T03:42:59.151Z,3.60
2017-10-21T03:45:27.761Z,3.13
2017-10-21T03:47:55.258Z,3.50
2017-10-21T03:50:22.789Z,2.83
2017-10-21T03:52:50.322Z,3.50
2017-10-21T03:55:17.855Z,3.33
2017-10-21T03:57:46.181Z,3.00
2017-10-21T04:00:14.455Z,2.80
2017-10-21T04:02:41.962Z,3.50
2017-10-21T04:05:09.507Z,3.87
2017-10-21T04:07:37.010Z,3.47
2017-10-21T04:10:05.301Z,3.07
2017-10-21T04:12:32.818Z,2.97
2017-10-21T04:15:00.533Z,4.37
2017-10-21T04:17:29.090Z,3.27
2017-10-21T04:19:57.374Z,2.93
2017-10-21T04:22:25.653Z,7.90
2017-10-21T04:24:53.506Z,3.03
2017-10-21T04:27:21.800Z,2.90
2017-10-21T04:29:49.319Z,3.00
2017-10-21T04:32:16.855Z,3.70
2017-10-21T04:34:44.362Z,3.60
2017-10-21T04:37:11.963Z,3.30
2017-10-21T04:39:39.459Z,4.80
2017-10-21T04:42:06.986Z,3.30
2017-10-21T04:44:34.646Z,2.83
2017-10-21T04:47:02.155Z,6.07
2017-10-21T04:49:29.695Z,3.43
2017-10-21T04:51:57.225Z,3.10
2017-10-21T04:54:24.731Z,2.40
2017-10-21T04:56:52.290Z,3.23
2017-10-21T04:59:19.792Z,7.07
2017-10-21T05:01:47.636Z,3.37
2017-10-21T05:04:15.910Z,4.03
2017-10-21T05:06:44.195Z,3.67
2017-10-21T05:09:12.802Z,2.93
2017-10-21T05:11:40.476Z,3.67
2017-10-21T05:14:07.982Z,3.10
2017-10-21T05:16:36.633Z,3.07
2017-10-21T05:19:04.918Z,2.57
2017-10-21T05:21:32.565Z,3.43
2017-10-21T05:24:00.446Z,3.50
2017-10-21T05:26:28.003Z,3.00
2017-10-21T05:28:55.618Z,3.40
2017-10-21T05:31:23.593Z,3.20
2017-10-21T05:33:52.686Z,3.43
2017-10-21T05:36:21.020Z,2.60
2017-10-21T05:38:48.975Z,2.80
2017-10-21T05:41:16.550Z,2.60
2017-10-21T05:43:44.130Z,2.83
2017-10-21T05:46:11.970Z,3.00
2017-10-21T05:48:39.543Z,3.30
2017-10-21T05:51:07.063Z,3.13
2017-10-21T05:53:34.916Z,3.13
2017-10-21T05:56:02.464Z,3.30
2017-10-21T05:58:30.783Z,2.73
2017-10-21T06:00:58.790Z,3.40
2017-10-21T06:03:26.326Z,3.20
2017-10-21T06:05:53.838Z,3.50
2017-10-21T06:08:25.590Z,3.03
2017-10-21T06:10:53.193Z,3.57
2017-10-21T06:13:21.002Z,3.00
2017-10-21T06:15:48.500Z,3.50
2017-10-21T06:18:16.017Z,3.00
2017-10-21T06:20:43.849Z,2.93
2017-10-21T06:23:11.366Z,3.20
2017-10-21T06:25:39.654Z,3.47
2017-10-21T06:28:08.247Z,3.33
2017-10-21T06:30:36.524Z,3.60
2017-10-21T06:33:04.814Z,3.57
2017-10-21T06:35:32.723Z,4.87
2017-10-21T06:38:00.229Z,4.47
2017-10-21T06:40:28.494Z,3.17
2017-10-21T06:42:56.417Z,3.27
2017-10-21T06:45:23.922Z,3.03
2017-10-21T06:47:52.479Z,3.90
2017-10-21T06:50:20.300Z,3.20
2017-10-21T06:52:47.829Z,3.00
2017-10-21T06:55:16.142Z,2.83
2017-10-21T06:57:43.962Z,3.97
2017-10-21T07:00:11.482Z,3.07
2017-10-21T07:02:39.005Z,2.90
2017-10-21T07:05:06.823Z,3.20
2017-10-21T07:07:34.345Z,3.40
2017-10-21T07:10:01.859Z,3.80
2017-10-21T07:12:29.697Z,4.20
2017-10-21T07:14:58.242Z,3.57
2017-10-21T07:17:26.517Z,3.50
2017-10-21T07:19:54.821Z,4.33
2017-10-21T07:22:22.330Z,3.13
2017-10-21T07:24:49.883Z,2.97
2017-10-21T07:27:17.414Z,3.20
2017-10-21T07:29:44.951Z,2.80
2017-10-21T07:32:12.514Z,3.07
2017-10-21T07:34:40.067Z,4.67
2017-10-21T07:37:07.662Z,5.43
2017-10-21T07:39:35.415Z,4.57
2017-10-21T07:42:02.921Z,4.07
2017-10-21T07:44:30.454Z,3.60
2017-10-21T07:46:57.967Z,3.57
2017-10-21T07:49:25.507Z,3.87
2017-10-21T07:51:53.047Z,4.00
2017-10-21T07:54:20.591Z,3.70
2017-10-21T07:56:48.138Z,3.77
2017-10-21T07:59:15.683Z,3.33
2017-10-21T08:01:43.205Z,4.13
2017-10-21T08:04:10.786Z,3.50
2017-10-21T08:06:39.079Z,3.23
2017-10-21T08:09:06.662Z,2.77
2017-10-21T08:11:34.176Z,3.20
2017-10-21T08:14:02.580Z,3.70
2017-10-21T08:16:30.074Z,2.97
2017-10-21T08:18:57.613Z,5.40
2017-10-21T08:21:25.149Z,2.97
2017-10-21T08:23:53.025Z,3.03
2017-10-21T08:26:20.581Z,2.87
2017-10-21T08:28:48.842Z,3.13
2017-10-21T08:31:17.149Z,3.27
2017-10-21T08:33:44.694Z,2.90
2017-10-21T08:36:12.227Z,3.33
2017-10-21T08:38:39.745Z,3.80
2017-10-21T08:41:07.305Z,3.47
2017-10-21T08:43:34.825Z,3.00
2017-10-21T08:46:03.132Z,3.90
2017-10-21T08:48:30.685Z,3.60
2017-10-21T08:50:58.260Z,3.50
2017-10-21T08:53:25.766Z,3.20
2017-10-21T08:55:53.304Z,3.23
2017-10-21T08:58:20.803Z,2.50
2017-10-21T09:00:49.109Z,2.80
2017-10-21T09:03:16.619Z,3.10
2017-10-21T09:05:44.210Z,3.33
2017-10-21T09:08:11.715Z,3.40
2017-10-21T09:10:39.239Z,3.30
2017-10-21T09:13:06.759Z,3.67
2017-10-21T09:15:34.315Z,3.03
2017-10-21T09:18:01.836Z,4.90
2017-10-21T09:20:29.407Z,3.77
2017-10-21T09:22:56.958Z,4.40
2017-10-21T09:25:24.497Z,3.67
2017-10-21T09:27:52.063Z,4.40
2017-10-21T09:30:19.650Z,3.50
2017-10-21T09:32:47.167Z,3.70
2017-10-21T09:35:14.724Z,3.87
2017-10-21T09:37:42.588Z,5.03
2017-10-21T09:40:11.259Z,25.20
2017-10-21T09:42:38.778Z,5.93
2017-10-21T09:45:06.307Z,4.70
2017-10-21T09:47:34.611Z,3.90
2017-10-21T09:50:02.301Z,4.70
2017-10-21T09:52:29.853Z,5.10
2017-10-21T09:54:57.403Z,5.33
2017-10-21T09:57:24.971Z,5.10
2017-10-21T09:59:52.505Z,5.20
2017-10-21T10:02:20.036Z,4.67
2017-10-21T10:04:47.580Z,4.40
2017-10-21T10:07:15.113Z,5.67
2017-10-21T10:09:42.661Z,4.50
2017-10-21T10:12:10.224Z,4.97
2017-10-21T10:14:37.751Z,4.80
2017-10-21T10:17:05.319Z,4.60
2017-10-21T10:19:32.833Z,5.80
2017-10-21T10:22:00.399Z,4.83
2017-10-21T10:24:27.937Z,4.40
2017-10-21T10:26:55.519Z,5.07
2017-10-21T10:29:23.958Z,4.40
2017-10-21T10:31:51.544Z,4.87
2017-10-21T10:34:19.056Z,4.47
2017-10-21T10:36:46.674Z,4.50
2017-10-21T10:39:14.205Z,5.30
2017-10-21T10:41:41.751Z,4.40
2017-10-21T10:44:09.327Z,4.80
2017-10-21T10:46:36.932Z,4.10
2017-10-21T10:49:04.474Z,4.27
2017-10-21T10:51:32.033Z,5.10
2017-10-21T10:53:59.539Z,5.47
2017-10-21T10:56:28.152Z,5.07
2017-10-21T10:58:55.683Z,5.10
2017-10-21T11:01:23.951Z,4.77
2017-10-21T11:03:52.279Z,4.60
2017-10-21T11:06:19.820Z,4.63
2017-10-21T11:08:47.399Z,4.73
2017-10-21T11:11:14.929Z,4.97
2017-10-21T11:13:42.474Z,4.17
2017-10-21T11:16:10.779Z,5.23
2017-10-21T11:18:38.353Z,5.20
2017-10-21T11:21:05.879Z,5.53
2017-10-21T11:23:34.227Z,5.33
2017-10-21T11:26:01.831Z,5.50
2017-10-21T11:28:29.388Z,5.00
2017-10-21T11:30:57.676Z,4.73
2017-10-21T11:33:25.225Z,6.10
2017-10-21T11:35:52.777Z,4.87
2017-10-21T11:38:20.394Z,5.30
2017-10-21T11:40:47.980Z,5.00
2017-10-21T11:43:15.584Z,5.83
2017-10-21T11:45:43.190Z,4.57
2017-10-21T11:48:10.795Z,5.50
2017-10-21T11:50:38.379Z,5.50
2017-10-21T11:53:05.952Z,5.87
2017-10-21T11:55:33.517Z,6.43
2017-10-21T11:58:01.106Z,5.87
2017-10-21T12:00:28.636Z,4.90
2017-10-21T12:02:56.178Z,4.70
2017-10-21T12:05:23.706Z,4.23
2017-10-21T12:07:52.040Z,5.00
2017-10-21T12:10:19.970Z,4.70
2017-10-21T12:12:47.965Z,4.10
2017-10-21T12:15:16.240Z,4.20
2017-10-21T12:17:43.868Z,3.97
2017-10-21T12:20:12.477Z,4.80
2017-10-21T12:22:40.148Z,3.90
2017-10-21T12:25:07.652Z,4.07
2017-10-21T12:27:35.474Z,3.80
2017-10-21T12:30:03.031Z,4.50
2017-10-21T12:32:31.011Z,4.23
2017-10-21T12:34:58.872Z,4.10
2017-10-21T12:37:26.412Z,4.17
2017-10-21T12:39:53.939Z,4.00
2017-10-21T12:42:21.749Z,3.17
2017-10-21T12:44:49.377Z,3.63
2017-10-21T12:47:17.663Z,3.17
2017-10-21T12:49:46.269Z,3.30
2017-10-21T12:52:13.791Z,3.43
2017-10-21T12:54:41.424Z,3.50
2017-10-21T12:57:09.293Z,3.30
2017-10-21T12:59:36.807Z,4.20
2017-10-21T13:02:04.320Z,4.10
2017-10-21T13:04:32.352Z,3.97
2017-10-21T13:06:59.866Z,3.80
2017-10-21T13:09:27.379Z,3.83
2017-10-21T13:11:55.417Z,4.03
2017-10-21T13:14:23.746Z,3.37
2017-10-21T13:16:51.275Z,4.10
2017-10-21T13:19:19.269Z,3.43
2017-10-21T13:21:46.817Z,3.30
2017-10-21T13:24:14.334Z,4.03
2017-10-21T13:26:42.191Z,3.40
2017-10-21T13:29:09.706Z,3.30
2017-10-21T13:31:38.039Z,4.00
2017-10-21T13:34:06.666Z,4.60
2017-10-21T13:36:34.187Z,3.80
2017-10-21T13:39:01.819Z,4.20
2017-10-21T13:41:29.660Z,4.50
2017-10-21T13:43:57.190Z,4.27
2017-10-21T13:46:25.479Z,3.50
2017-10-21T13:48:54.079Z,4.67
2017-10-21T13:51:21.592Z,3.47
2017-10-21T13:53:49.212Z,4.33
2017-10-21T13:56:17.799Z,4.80
2017-10-21T13:58:45.392Z,5.00
2017-10-21T14:01:12.932Z,4.23
2017-10-21T14:03:40.796Z,3.90
2017-10-21T14:06:08.377Z,4.30
2017-10-21T14:08:35.905Z,5.70
2017-10-21T14:11:03.914Z,4.70
2017-10-21T14:13:31.509Z,4.50
2017-10-21T14:15:59.039Z,4.03
2017-10-21T14:18:27.794Z,4.33
2017-10-21T14:20:55.340Z,4.47
2017-10-21T14:23:23.014Z,4.50
2017-10-21T14:25:51.297Z,4.77
2017-10-21T14:28:22.668Z,5.00
2017-10-21T14:30:50.398Z,5.00
2017-10-21T14:33:20.115Z,5.90
2017-10-21T14:35:47.828Z,6.50
2017-10-21T14:38:15.524Z,7.60
2017-10-21T14:40:43.500Z,7.70
2017-10-21T14:43:11.114Z,7.67
2017-10-21T14:45:39.824Z,7.90
2017-10-21T14:48:07.787Z,8.30
2017-10-21T14:50:35.380Z,7.87
2017-10-21T14:53:03.134Z,8.07
2017-10-21T14:55:31.813Z,8.50
2017-10-21T14:58:00.218Z,9.13
2017-10-21T15:00:27.921Z,8.83
2017-10-21T15:02:55.885Z,8.33
2017-10-21T15:05:23.560Z,9.40
2017-10-21T15:07:51.087Z,8.70
2017-10-21T15:10:19.603Z,9.30
2017-10-21T15:12:48.070Z,8.37
2017-10-21T15:15:15.679Z,9.17
2017-10-21T15:17:43.683Z,8.57
2017-10-21T15:20:11.386Z,7.97
2017-10-21T15:22:40.457Z,7.90
2017-10-21T15:25:08.391Z,10.07
2017-10-21T15:27:36.024Z,9.13
2017-10-21T15:30:03.615Z,9.00
2017-10-21T15:32:31.572Z,9.70
2017-10-21T15:34:59.169Z,10.80
2017-10-21T15:37:26.746Z,10.30
2017-10-21T15:39:54.856Z,9.40
2017-10-21T15:42:22.383Z,9.63
2017-10-21T15:44:49.937Z,11.47
2017-10-21T15:47:17.914Z,10.10
2017-10-21T15:49:45.424Z,10.27
2017-10-21T15:52:12.959Z,9.57
2017-10-21T15:54:41.633Z,12.67
2017-10-21T15:57:09.165Z,10.60
2017-10-21T15:59:36.731Z,11.30
2017-10-21T16:02:04.547Z,11.17
2017-10-21T16:04:32.847Z,11.53
2017-10-21T16:07:01.160Z,12.97
2017-10-21T16:09:28.964Z,10.93
2017-10-21T16:11:57.307Z,12.30
2017-10-21T16:14:24.945Z,13.80
2017-10-21T16:16:52.907Z,12.00
2017-10-21T16:19:20.574Z,11.90
2017-10-21T16:21:48.190Z,11.70
2017-10-21T16:24:16.925Z,11.83
2017-10-21T16:26:44.613Z,11.30
2017-10-21T16:29:12.161Z,12.60
2017-10-21T16:31:40.017Z,12.17
2017-10-21T16:34:07.665Z,11.30
2017-10-21T16:36:35.284Z,11.90
2017-10-21T16:39:03.367Z,13.30
2017-10-21T16:41:31.305Z,10.50
2017-10-21T16:44:00.151Z,11.70
2017-10-21T16:46:28.759Z,12.90
2017-10-21T16:48:56.406Z,12.40
2017-10-21T16:51:24.443Z,13.73
2017-10-21T16:53:53.007Z,14.03
2017-10-21T16:56:21.365Z,13.90
2017-10-21T16:58:48.890Z,13.40
2017-10-21T17:01:17.515Z,12.93
2017-10-21T17:03:45.026Z,13.40
2017-10-21T17:06:12.548Z,13.67
2017-10-21T17:08:40.129Z,15.00
2017-10-21T17:11:07.663Z,13.50
2017-10-21T17:13:35.203Z,15.10
2017-10-21T17:16:02.724Z,16.10
2017-10-21T17:18:31.066Z,16.70
2017-10-21T17:20:58.614Z,16.97
2017-10-21T17:23:26.551Z,14.97
2017-10-21T17:25:55.990Z,16.20
2017-10-21T17:28:24.283Z,17.40
2017-10-21T17:30:52.608Z,18.97
2017-10-21T17:33:20.241Z,17.90
2017-10-21T17:35:47.876Z,16.63
2017-10-21T17:38:15.583Z,18.67
2017-10-21T17:40:43.197Z,20.80
2017-10-21T17:43:10.823Z,19.20
2017-10-21T17:45:38.453Z,21.03
2017-10-21T17:48:06.052Z,17.60
2017-10-21T17:50:33.795Z,19.80
2017-10-21T17:53:01.520Z,19.73
2017-10-21T17:55:30.612Z,21.93
2017-10-21T17:57:59.104Z,19.67
2017-10-21T18:00:26.690Z,21.37
2017-10-21T18:02:54.206Z,20.40
2017-10-21T18:05:21.756Z,21.23
2017-10-21T18:07:49.335Z,22.20
2017-10-21T18:10:16.888Z,20.73
2017-10-21T18:12:44.433Z,21.63
2017-10-21T18:15:12.056Z,21.80
2017-10-21T18:17:39.587Z,20.87
2017-10-21T18:20:08.135Z,21.87
2017-10-21T18:22:36.466Z,22.13
2017-10-21T18:25:04.904Z,21.80
2017-10-21T18:27:32.540Z,23.30
2017-10-21T18:30:00.888Z,22.40
2017-10-21T18:32:28.442Z,23.20
2017-10-21T18:34:56.298Z,24.43
2017-10-21T18:37:23.848Z,21.13
2017-10-21T18:39:51.410Z,20.03
2017-10-21T18:42:19.028Z,23.47
2017-10-21T18:44:47.403Z,22.10
2017-10-21T18:47:15.718Z,22.80
2017-10-21T18:49:43.317Z,22.80
2017-10-21T18:52:10.888Z,23.50
2017-10-21T18:54:38.465Z,24.00
2017-10-21T18:57:06.077Z,24.20
2017-10-21T18:59:33.673Z,23.03
2017-10-21T19:02:01.296Z,21.40
2017-10-21T19:04:28.837Z,21.50
2017-10-21T19:06:56.381Z,20.80
2017-10-21T19:09:23.921Z,21.40
2017-10-21T19:11:51.468Z,18.90
2017-10-21T19:14:18.989Z,19.37
2017-10-21T19:16:46.583Z,18.70
2017-10-21T19:19:14.135Z,19.17
2017-10-21T19:21:41.699Z,19.80
2017-10-21T19:24:09.230Z,19.77
2017-10-21T19:26:36.811Z,20.93
2017-10-21T19:29:05.494Z,21.33
2017-10-21T19:31:35.394Z,22.00
2017-10-21T19:34:05.189Z,21.43
2017-10-21T19:39:07.981Z,23.07
2017-10-21T19:41:36.483Z,23.40
2017-10-21T19:44:04.327Z,22.70
2017-10-21T19:46:31.877Z,24.50
2017-10-21T19:48:59.986Z,27.27
2017-10-21T19:51:29.627Z,25.10
2017-10-21T19:53:57.790Z,25.03
2017-10-21T19:56:26.853Z,24.80
2017-10-21T19:58:55.239Z,23.67
2017-10-21T20:01:23.390Z,23.43
2017-10-21T20:03:52.009Z,23.50
2017-10-21T20:06:20.355Z,23.53
2017-10-21T20:08:48.657Z,25.37
2017-10-21T20:11:16.726Z,22.33
2017-10-21T20:13:45.003Z,22.30
2017-10-21T20:16:13.441Z,23.60
2017-10-21T20:18:41.412Z,22.23
2017-10-21T20:21:08.947Z,24.47
2017-10-21T20:23:36.506Z,22.67
2017-10-21T20:26:04.424Z,22.93
2017-10-21T20:28:31.971Z,20.97
2017-10-21T20:30:59.515Z,21.90
2017-10-21T20:33:27.380Z,21.50
2017-10-21T20:35:54.954Z,22.00
2017-10-21T20:38:22.506Z,22.90
2017-10-21T20:40:50.371Z,22.70
2017-10-21T20:43:17.896Z,23.07
2017-10-21T20:45:45.602Z,21.13
2017-10-21T20:48:13.481Z,22.77
2017-10-21T20:50:41.009Z,22.10
2017-10-21T20:53:08.533Z,22.10
2017-10-21T20:55:37.151Z,20.60
2017-10-21T20:58:04.700Z,20.90
2017-10-21T21:00:32.241Z,19.57
2017-10-21T21:02:59.806Z,21.03
2017-10-21T21:05:28.430Z,21.93
2017-10-21T21:07:56.635Z,20.00
2017-10-21T21:10:24.291Z,21.40
2017-10-21T21:12:52.055Z,21.50
2017-10-21T21:15:20.555Z,20.30
2017-10-21T21:17:48.916Z,20.10
2017-10-21T21:20:16.485Z,16.97
2017-10-21T21:22:44.048Z,18.70
2017-10-21T21:25:11.596Z,18.97
2017-10-21T21:27:39.196Z,15.90
2017-10-21T21:30:06.750Z,16.83
2017-10-21T21:32:35.074Z,15.50
2017-10-21T21:35:02.596Z,17.27
2017-10-21T21:37:30.914Z,15.30
2017-10-21T21:39:58.454Z,16.90
2017-10-21T21:42:26.010Z,16.87
2017-10-21T21:44:53.545Z,14.43
2017-10-21T21:47:21.862Z,14.97
2017-10-21T21:49:49.417Z,13.33
2017-10-21T21:52:16.988Z,14.13
2017-10-21T21:54:44.525Z,13.87
2017-10-21T21:57:12.064Z,14.50
2017-10-21T21:59:40.395Z,15.40
2017-10-21T22:02:08.014Z,14.50
2017-10-21T22:04:36.355Z,14.00
2017-10-21T22:07:03.877Z,14.47
2017-10-21T22:09:31.442Z,13.20
2017-10-21T22:11:58.975Z,13.13
2017-10-21T22:14:27.288Z,13.77
2017-10-21T22:16:54.830Z,13.17
2017-10-21T22:19:23.154Z,13.47
2017-10-21T22:21:50.690Z,12.83
2017-10-21T22:24:18.344Z,13.60
2017-10-21T22:26:45.866Z,12.80
2017-10-21T22:29:14.186Z,13.50
2017-10-21T22:31:41.752Z,14.10
2017-10-21T22:34:09.289Z,13.13
2017-10-21T22:36:36.812Z,20.43
2017-10-21T22:39:04.391Z,16.23
2017-10-21T22:41:32.671Z,13.80
2017-10-21T22:44:00.980Z,14.50
2017-10-21T22:46:28.486Z,16.33
2017-10-21T22:48:56.100Z,13.20
2017-10-21T22:51:23.627Z,13.50
2017-10-21T22:53:51.920Z,13.13
2017-10-21T22:56:19.498Z,14.13
2017-10-21T22:58:47.081Z,13.40
2017-10-21T23:01:15.327Z,13.77
2017-10-21T23:03:42.855Z,14.10
2017-10-21T23:06:11.165Z,14.50
2017-10-21T23:08:39.149Z,15.27
2017-10-21T23:11:06.694Z,14.27
2017-10-21T23:13:34.215Z,15.67
2017-10-21T23:16:02.051Z,14.97
2017-10-21T23:18:29.576Z,16.57
2017-10-21T23:20:57.102Z,17.33
2017-10-21T23:23:24.953Z,17.17
2017-10-21T23:25:52.462Z,16.57
2017-10-21T23:28:19.994Z,16.63
2017-10-21T23:30:47.806Z,15.57
2017-10-21T23:33:15.346Z,15.60
2017-10-21T23:35:42.890Z,15.97
2017-10-21T23:38:11.544Z,21.20
2017-10-21T23:40:39.055Z,22.43
2017-10-21T23:43:06.608Z,19.60
2017-10-21T23:45:34.534Z,21.37
2017-10-21T23:48:02.061Z,24.13
2017-10-21T23:50:29.585Z,25.20
2017-10-21T23:52:58.203Z,23.27
2017-10-21T23:55:25.727Z,26.60
2017-10-21T23:57:54.013Z,22.60
